Time;durP1;ratioP1;P1;durP2;ratioP2;P2;SDS_P1;SDS_P2;PMS_P1;PMS_P2;Temp;Humidity;BMP_temperature;BMP_pressure;BME280_temperature;BME280_humidity;BME280_pressure;Samples;Min_cycle;Max_cycle;Signal;HPM_P1;HPM_P2
2024/04/06 00:01:36;;;;;;;0.47;0.47;;;15.90;99.90;;;;;;5044173;28;20194;-59
2024/04/06 00:04:04;;;;;;;2.00;0.50;;;15.80;99.90;;;;;;5052464;28;20587;-59
2024/04/06 00:06:30;;;;;;;2.00;0.40;;;15.80;99.90;;;;;;5052432;28;20230;-59
2024/04/06 00:08:57;;;;;;;0.53;0.53;;;15.70;99.90;;;;;;5051403;28;20217;-59
2024/04/06 00:11:23;;;;;;;1.13;0.60;;;15.70;99.90;;;;;;5046108;28;20233;-59
2024/04/06 00:13:51;;;;;;;0.73;0.60;;;15.70;99.90;;;;;;5042097;28;20205;-59
2024/04/06 00:16:17;;;;;;;0.87;0.60;;;15.60;99.90;;;;;;5032244;28;20249;-59
2024/04/06 00:18:44;;;;;;;0.73;0.40;;;15.60;99.90;;;;;;5028482;28;20317;-59
2024/04/06 00:21:10;;;;;;;1.50;0.50;;;15.60;99.90;;;;;;5043434;28;20206;-59
2024/04/06 00:23:37;;;;;;;0.80;0.80;;;15.50;99.90;;;;;;5040883;28;20199;-59
2024/04/06 00:26:04;;;;;;;1.30;0.60;;;15.50;99.90;;;;;;5033994;28;20205;-59
2024/04/06 00:28:31;;;;;;;1.00;1.00;;;15.40;99.90;;;;;;5050988;28;20226;-59
2024/04/06 00:30:58;;;;;;;0.50;0.50;;;15.30;99.90;;;;;;5051724;28;20209;-59
2024/04/06 00:33:25;;;;;;;1.27;0.50;;;15.30;99.90;;;;;;5051502;28;20699;-59
2024/04/06 00:35:51;;;;;;;0.37;0.37;;;15.30;99.90;;;;;;5047224;28;20554;-59
2024/04/06 00:38:18;;;;;;;0.80;0.50;;;15.30;99.90;;;;;;5038742;28;20252;-59
2024/04/06 00:40:44;;;;;;;1.20;0.50;;;15.30;99.90;;;;;;5047633;28;20202;-59
2024/04/06 00:43:11;;;;;;;0.40;0.40;;;15.30;99.90;;;;;;5042470;28;20205;-59
2024/04/06 00:45:37;;;;;;;0.70;0.30;;;15.10;99.90;;;;;;5043105;28;20259;-59
2024/04/06 00:48:07;;;;;;;0.53;0.40;;;15.10;99.90;;;;;;5050176;28;20593;-59
2024/04/06 00:50:33;;;;;;;0.93;0.50;;;15.10;99.90;;;;;;5037345;28;20213;-60
2024/04/06 00:53:00;;;;;;;0.83;0.83;;;15.20;99.90;;;;;;5050239;28;20228;-59
2024/04/06 00:55:26;;;;;;;0.87;0.83;;;15.30;99.90;;;;;;5011441;28;20203;-59
2024/04/06 00:57:53;;;;;;;0.57;0.43;;;15.30;99.90;;;;;;5010389;28;20691;-59
2024/04/06 01:00:19;;;;;;;1.70;0.40;;;15.20;99.90;;;;;;5011582;28;20203;-59
2024/04/06 01:02:46;;;;;;;0.83;0.50;;;15.20;99.90;;;;;;5029530;28;20551;-59
2024/04/06 01:05:14;;;;;;;1.30;0.50;;;15.10;99.90;;;;;;5043920;28;20669;-59
2024/04/06 01:07:44;;;;;;;1.03;0.50;;;15.00;99.90;;;;;;5045568;28;20230;-59
2024/04/06 01:10:10;;;;;;;2.97;0.60;;;14.90;99.90;;;;;;5042643;28;20221;-60
2024/04/06 01:12:37;;;;;;;0.50;0.50;;;14.90;99.90;;;;;;5051002;28;20645;-59
2024/04/06 01:15:04;;;;;;;1.13;0.60;;;14.80;99.90;;;;;;5041768;28;20202;-59
2024/04/06 01:17:31;;;;;;;1.13;0.50;;;14.70;99.90;;;;;;5047774;28;20198;-59
2024/04/06 01:19:57;;;;;;;1.60;0.60;;;14.70;99.90;;;;;;5050683;28;20209;-59
2024/04/06 01:22:26;;;;;;;1.23;0.40;;;14.80;99.90;;;;;;5050599;28;20198;-59
2024/04/06 01:24:53;;;;;;;0.60;0.60;;;14.80;99.90;;;;;;5049888;28;20666;-59
2024/04/06 01:27:20;;;;;;;1.43;0.83;;;14.80;99.90;;;;;;5044489;28;20229;-60
2024/04/06 01:29:46;;;;;;;1.13;0.90;;;14.60;99.90;;;;;;5041590;28;20251;-59
2024/04/06 01:32:13;;;;;;;1.67;0.67;;;14.60;99.90;;;;;;5050791;28;20225;-60
2024/04/06 01:34:39;;;;;;;0.67;0.60;;;14.60;99.90;;;;;;5050552;28;20201;-59
2024/04/06 01:37:06;;;;;;;2.00;0.50;;;14.50;99.90;;;;;;5050537;28;20201;-59
2024/04/06 01:39:33;;;;;;;0.47;0.47;;;14.30;99.90;;;;;;5037221;28;20230;-59
2024/04/06 01:42:01;;;;;;;1.37;0.40;;;14.40;99.90;;;;;;5044331;28;21456;-59
2024/04/06 01:44:27;;;;;;;1.30;0.60;;;14.30;99.90;;;;;;5050392;28;20202;-59
2024/04/06 01:46:54;;;;;;;2.27;0.60;;;14.30;99.90;;;;;;5044817;28;20275;-59
2024/04/06 01:49:20;;;;;;;1.30;0.40;;;14.20;99.90;;;;;;5041265;28;20778;-59
2024/04/06 01:51:48;;;;;;;0.60;0.60;;;14.40;99.90;;;;;;5044922;28;20265;-59
2024/04/06 01:54:14;;;;;;;1.10;0.40;;;14.30;99.90;;;;;;5041208;28;20210;-59
2024/04/06 01:56:41;;;;;;;0.50;0.50;;;14.20;99.90;;;;;;5049414;28;20205;-59
2024/04/06 01:59:08;;;;;;;1.43;0.90;;;14.20;99.90;;;;;;5048821;28;20225;-59
2024/04/06 02:01:35;;;;;;;0.70;0.50;;;14.10;99.90;;;;;;5050165;28;20201;-59
2024/04/06 02:04:01;;;;;;;1.80;0.53;;;14.10;99.90;;;;;;5050063;28;20201;-59
2024/04/06 02:06:28;;;;;;;0.93;0.60;;;14.10;99.90;;;;;;5036158;28;20195;-59
2024/04/06 02:08:54;;;;;;;0.57;0.50;;;14.00;99.90;;;;;;5048245;28;20221;-59
2024/04/06 02:11:21;;;;;;;1.67;0.40;;;14.00;99.90;;;;;;5050290;28;20197;-59
2024/04/06 02:13:47;;;;;;;0.50;0.50;;;14.00;99.90;;;;;;5033797;28;20210;-59
2024/04/06 02:16:16;;;;;;;0.90;0.90;;;14.10;99.90;;;;;;5030375;28;20628;-59
2024/04/06 02:18:43;;;;;;;1.67;0.50;;;14.10;99.90;;;;;;5029180;28;20257;-59
2024/04/06 02:21:11;;;;;;;1.20;0.37;;;14.10;99.90;;;;;;5049935;28;20653;-59
2024/04/06 02:23:37;;;;;;;1.10;0.60;;;14.00;99.90;;;;;;5048059;28;20217;-59
2024/04/06 02:26:04;;;;;;;0.50;0.50;;;13.90;99.90;;;;;;5049841;28;20585;-59
2024/04/06 02:28:30;;;;;;;0.60;0.60;;;13.80;99.90;;;;;;5042576;28;20222;-59
2024/04/06 02:30:57;;;;;;;0.60;0.60;;;13.80;99.90;;;;;;5035161;28;20281;-59
2024/04/06 02:33:24;;;;;;;0.47;0.47;;;13.80;99.90;;;;;;5043998;28;20225;-59
2024/04/06 02:35:51;;;;;;;0.40;0.40;;;13.80;99.90;;;;;;5049775;28;20716;-60
2024/04/06 02:38:17;;;;;;;0.40;0.40;;;13.70;99.90;;;;;;5048952;28;20245;-59
2024/04/06 02:40:46;;;;;;;2.33;0.53;;;13.60;99.90;;;;;;5049945;28;20828;-59
2024/04/06 02:43:12;;;;;;;0.40;0.40;;;13.50;99.90;;;;;;5034210;28;20205;-59
2024/04/06 02:45:39;;;;;;;0.40;0.40;;;13.50;99.90;;;;;;5034393;28;20662;-59
2024/04/06 02:48:06;;;;;;;0.80;0.63;;;13.40;99.90;;;;;;5028861;28;20242;-59
2024/04/06 02:50:34;;;;;;;1.13;0.60;;;13.40;99.90;;;;;;5030253;28;20213;-59
2024/04/06 02:53:00;;;;;;;0.87;0.50;;;13.40;99.90;;;;;;5028418;28;20574;-59
2024/04/06 02:55:27;;;;;;;0.70;0.70;;;13.40;99.90;;;;;;5041487;28;20201;-59
2024/04/06 02:57:55;;;;;;;1.07;0.57;;;13.30;99.90;;;;;;5049003;28;20225;-59
2024/04/06 03:00:22;;;;;;;0.70;0.70;;;13.20;99.90;;;;;;5045091;28;20202;-59
2024/04/06 03:02:48;;;;;;;0.77;0.77;;;13.20;99.90;;;;;;5042757;28;20206;-60
2024/04/06 03:05:16;;;;;;;0.63;0.63;;;13.10;99.90;;;;;;5050550;28;20577;-59
2024/04/06 03:07:44;;;;;;;0.83;0.70;;;13.00;99.90;;;;;;5046801;28;20715;-59
2024/04/06 03:10:11;;;;;;;1.13;0.70;;;12.90;99.90;;;;;;5034159;28;20221;-59
2024/04/06 03:12:37;;;;;;;0.60;0.60;;;12.80;99.90;;;;;;5037924;28;20201;-59
2024/04/06 03:15:05;;;;;;;0.80;0.67;;;12.70;99.90;;;;;;5053188;28;20298;-59
2024/04/06 03:17:31;;;;;;;2.63;1.00;;;12.60;99.90;;;;;;5051646;28;20699;-59
2024/04/06 03:19:58;;;;;;;0.60;0.60;;;12.50;99.90;;;;;;5053574;28;20197;-59
2024/04/06 03:22:24;;;;;;;1.33;0.60;;;12.50;99.90;;;;;;5053375;28;20283;-59
2024/04/06 03:24:53;;;;;;;0.37;0.37;;;12.50;99.90;;;;;;5040147;28;20599;-59
2024/04/06 03:27:19;;;;;;;1.13;0.57;;;12.40;99.90;;;;;;5046365;28;20249;-59
2024/04/06 03:29:46;;;;;;;1.27;0.60;;;12.40;99.90;;;;;;5052554;28;20233;-59
2024/04/06 03:32:12;;;;;;;2.37;0.60;;;12.40;99.90;;;;;;5051801;28;20208;-59
2024/04/06 03:34:39;;;;;;;0.60;0.60;;;12.30;99.90;;;;;;5053033;28;20307;-59
2024/04/06 03:37:07;;;;;;;1.03;0.97;;;12.20;99.90;;;;;;5037579;28;20194;-59
2024/04/06 03:39:34;;;;;;;0.60;0.60;;;12.20;99.90;;;;;;5047255;28;20406;-59
2024/04/06 03:42:02;;;;;;;0.80;0.80;;;12.10;99.90;;;;;;5039838;28;20264;-59
2024/04/06 03:44:29;;;;;;;3.10;1.23;;;12.00;99.90;;;;;;5026015;28;20206;-59
2024/04/06 03:46:55;;;;;;;1.63;1.10;;;12.10;99.90;;;;;;5032693;28;20264;-59
2024/04/06 03:49:22;;;;;;;0.80;0.80;;;12.00;99.90;;;;;;5026994;28;20240;-59
2024/04/06 03:51:48;;;;;;;1.50;1.40;;;12.00;99.90;;;;;;5029911;28;20207;-59
2024/04/06 03:54:15;;;;;;;2.57;1.47;;;11.90;99.90;;;;;;5032452;28;20267;-59
2024/04/06 03:56:41;;;;;;;1.13;1.07;;;11.90;99.90;;;;;;5033694;28;20256;-59
2024/04/06 03:59:10;;;;;;;1.73;0.80;;;11.80;99.90;;;;;;5023686;28;20213;-59
2024/04/06 04:01:36;;;;;;;2.07;0.70;;;11.80;99.90;;;;;;5029477;28;20203;-59
2024/04/06 04:04:03;;;;;;;2.23;0.63;;;11.70;99.90;;;;;;5033125;28;20205;-58
2024/04/06 04:06:29;;;;;;;0.93;0.57;;;11.70;99.90;;;;;;5029535;28;20217;-59
2024/04/06 04:08:56;;;;;;;0.87;0.70;;;11.60;99.90;;;;;;5036946;28;20230;-59
2024/04/06 04:11:23;;;;;;;0.87;0.70;;;11.60;99.90;;;;;;5032244;28;20220;-59
2024/04/06 04:13:50;;;;;;;0.50;0.50;;;11.60;99.90;;;;;;5032519;28;20205;-59
2024/04/06 04:16:17;;;;;;;0.93;0.70;;;11.50;99.90;;;;;;5031973;28;20244;-59
2024/04/06 04:18:44;;;;;;;2.73;1.07;;;11.50;99.90;;;;;;5025267;28;20637;-59
2024/04/06 04:21:10;;;;;;;0.60;0.60;;;11.50;99.90;;;;;;5029983;28;20204;-59
2024/04/06 04:23:37;;;;;;;0.63;0.63;;;;;;;;;;5028350;28;20208;-59
2024/04/06 04:26:04;;;;;;;1.90;0.73;;;;;;;;;;5029612;28;20660;-59
2024/04/06 04:28:31;;;;;;;1.27;1.17;;;;;;;;;;5029435;28;20260;-59
2024/04/06 04:30:58;;;;;;;0.70;0.70;;;;;;;;;;5032319;28;20295;-60
2024/04/06 04:33:26;;;;;;;1.17;0.63;;;;;;;;;;5030220;28;20244;-59
2024/04/06 04:35:52;;;;;;;1.00;0.60;;;;;;;;;;5030802;28;20559;-59
2024/04/06 04:38:20;;;;;;;1.13;0.70;;;;;;;;;;5030941;28;20274;-59
2024/04/06 04:40:46;;;;;;;0.67;0.60;;;;;;;;;;5032173;28;20207;-59
2024/04/06 04:43:14;;;;;;;0.60;0.60;;;;;;;;;;5030513;28;20327;-59
2024/04/06 04:45:41;;;;;;;3.03;0.70;;;;;;;;;;5032059;28;20212;-59
2024/04/06 04:48:08;;;;;;;0.57;0.57;;;;;;;;;;5031034;28;20225;-59
2024/04/06 04:50:36;;;;;;;1.83;1.00;;;;;;;;;;5029918;28;20311;-59
2024/04/06 04:53:03;;;;;;;0.60;0.60;;;;;;;;;;5026792;28;20604;-60
2024/04/06 04:55:29;;;;;;;0.77;0.77;;;;;;;;;;5032049;28;20628;-60
2024/04/06 04:57:57;;;;;;;0.60;0.60;;;;;;;;;;5030612;28;20237;-59
2024/04/06 05:00:24;;;;;;;1.33;0.53;;;;;;;;;;5028938;28;20263;-60
2024/04/06 05:02:55;;;;;;;0.90;0.60;;;;;;;;;;5031401;28;20642;-59
2024/04/06 05:05:21;;;;;;;3.40;0.80;;;;;;;;;;5031519;28;20202;-60
2024/04/06 05:07:54;;;;;;;0.67;0.50;;;;;;;;;;5024277;28;20253;-60
2024/04/06 05:10:20;;;;;;;0.73;0.70;;;;;;;;;;5031484;28;20242;-60
2024/04/06 05:12:47;;;;;;;0.90;0.90;;;;;;;;;;5031427;28;20270;-61
2024/04/06 05:15:14;;;;;;;1.10;0.70;;;;;;;;;;5031653;28;20210;-60
2024/04/06 05:17:41;;;;;;;1.90;0.70;;;;;;;;;;5027853;28;20221;-60
2024/04/06 05:20:08;;;;;;;0.40;0.40;;;;;;;;;;5023641;28;20210;-60
2024/04/06 05:22:35;;;;;;;0.50;0.50;;;;;;;;;;5026329;28;20202;-60
2024/04/06 05:25:03;;;;;;;0.60;0.43;;;;;;;;;;5016524;28;20198;-60
2024/04/06 05:27:31;;;;;;;1.40;0.57;;;;;;;;;;5018560;28;20221;-59
2024/04/06 05:29:57;;;;;;;1.90;0.97;;;;;;;;;;5018847;28;20681;-60
2024/04/06 05:32:24;;;;;;;0.30;0.30;;;;;;;;;;5011330;28;20292;-59
2024/04/06 05:34:51;;;;;;;1.50;0.40;;;;;;;;;;5014329;28;20229;-59
2024/04/06 05:37:18;;;;;;;0.67;0.67;;;;;;;;;;5011630;28;20265;-59
2024/04/06 05:39:44;;;;;;;2.40;0.47;;;;;;;;;;5012681;28;20238;-59
2024/04/06 05:42:13;;;;;;;1.77;0.60;;;;;;;;;;5011025;28;20208;-60
2024/04/06 05:44:39;;;;;;;1.30;0.90;;;;;;;;;;5014416;28;20555;-60
2024/04/06 05:47:06;;;;;;;0.73;0.70;;;;;;;;;;5018978;28;20205;-59
2024/04/06 05:49:33;;;;;;;2.20;0.97;;;;;;;;;;5010155;28;20234;-59
2024/04/06 05:52:00;;;;;;;0.87;0.57;;;;;;;;;;5014012;28;20282;-59
2024/04/06 05:54:26;;;;;;;0.60;0.60;;;;;;;;;;5010532;28;20696;-59
2024/04/06 05:56:54;;;;;;;2.97;0.70;;;;;;;;;;5018566;28;20264;-59
2024/04/06 05:59:21;;;;;;;1.67;1.00;;;;;;;;;;5010480;28;20246;-59
2024/04/06 06:01:48;;;;;;;1.87;0.83;;;;;;;;;;5013595;28;20711;-59
2024/04/06 06:04:15;;;;;;;2.50;0.60;;;;;;;;;;5010164;28;20214;-59
2024/04/06 06:06:42;;;;;;;1.90;0.90;;;;;;;;;;5010164;28;20693;-60
2024/04/06 06:09:08;;;;;;;3.80;1.50;;;;;;;;;;5011955;28;20223;-60
2024/04/06 06:11:36;;;;;;;1.27;0.70;;;;;;;;;;5016152;28;20248;-59
2024/04/06 06:14:02;;;;;;;1.57;0.60;;;;;;;;;;5026157;28;20261;-59
2024/04/06 06:16:30;;;;;;;1.70;0.67;;;;;;;;;;5022551;28;20257;-59
2024/04/06 06:18:57;;;;;;;1.17;0.63;;;;;;;;;;5022226;28;20552;-59
2024/04/06 06:21:24;;;;;;;1.63;0.93;;;;;;;;;;5010068;28;20245;-59
2024/04/06 06:23:50;;;;;;;1.17;0.50;;;;;;;;;;5012326;28;20214;-60
2024/04/06 06:26:18;;;;;;;0.83;0.57;;;;;;;;;;5017672;28;20263;-59
2024/04/06 06:28:45;;;;;;;2.63;0.60;;;;;;;;;;5014126;28;20222;-59
2024/04/06 06:31:12;;;;;;;0.40;0.40;;;;;;;;;;5029784;28;20233;-60
2024/04/06 06:33:40;;;;;;;1.60;0.43;;;;;;;;;;5021284;28;20361;-60
2024/04/06 06:36:08;;;;;;;0.40;0.40;;;;;;;;;;5027402;28;20230;-60
2024/04/06 06:38:34;;;;;;;1.70;0.57;;;;;;;;;;5024383;28;20230;-59
2024/04/06 06:41:02;;;;;;;0.70;0.70;;;;;;;;;;5031545;28;20620;-59
2024/04/06 06:43:28;;;;;;;0.83;0.60;;;;;;;;;;5031945;28;20569;-60
2024/04/06 06:45:56;;;;;;;0.60;0.60;;;;;;;;;;5033500;28;20625;-59
2024/04/06 06:48:22;;;;;;;0.80;0.80;;;;;;;;;;5030460;28;20456;-58
2024/04/06 06:50:52;;;;;;;1.97;0.87;;;;;;;;;;5032182;28;20199;-58
2024/04/06 06:53:19;;;;;;;1.07;0.80;;;;;;;;;;5032350;28;20737;-56
2024/04/06 06:55:45;;;;;;;0.50;0.50;;;;;;;;;;5031735;28;20313;-58
2024/04/06 06:58:13;;;;;;;1.47;0.63;;;;;;;;;;5035294;28;20225;-57
2024/04/06 07:00:39;;;;;;;1.70;0.70;;;;;;;;;;5032184;28;20281;-58
2024/04/06 07:03:06;;;;;;;1.63;0.60;;;;;;;;;;5031969;28;20336;-57
2024/04/06 07:05:32;;;;;;;0.63;0.63;;;;;;;;;;5032161;28;20203;-58
2024/04/06 07:08:05;;;;;;;1.63;0.47;;;;;;;;;;5031310;28;20254;-58
2024/04/06 07:10:37;;;;;;;0.80;0.80;;;;;;;;;;5032124;28;20585;-58
2024/04/06 07:13:05;;;;;;;2.63;0.80;;;;;;;;;;5032736;28;20271;-58
2024/04/06 07:15:31;;;;;;;0.97;0.50;;;24.50;99.90;;;;;;5030663;28;20666;-57
2024/04/06 07:17:59;;;;;;;1.60;0.40;;;24.20;99.90;;;;;;5030403;28;20222;-58
2024/04/06 07:20:25;;;;;;;0.40;0.40;;;24.50;99.90;;;;;;5032700;28;20581;-57
2024/04/06 07:22:53;;;;;;;1.07;0.47;;;24.10;99.90;;;;;;5032335;28;20253;-57
2024/04/06 07:25:20;;;;;;;0.80;0.40;;;24.00;99.90;;;;;;5034158;28;20217;-58
2024/04/06 07:27:47;;;;;;;1.70;0.50;;;23.40;99.90;;;;;;5031141;28;20226;-58
2024/04/06 07:30:14;;;;;;;0.60;0.60;;;23.30;99.90;;;;;;5032496;28;20217;-58
2024/04/06 07:32:41;;;;;;;0.73;0.60;;;23.20;99.90;;;;;;5022973;28;20290;-57
2024/04/06 07:35:09;;;;;;;0.60;0.60;;;22.90;99.40;;;;;;5031838;28;20202;-57
2024/04/06 07:37:37;;;;;;;1.57;0.53;;;23.00;99.90;;;;;;5031081;28;20206;-58
2024/04/06 07:40:04;;;;;;;3.83;0.57;;;23.10;99.90;;;;;;5032115;28;20225;-58
2024/04/06 07:42:32;;;;;;;1.97;0.63;;;23.30;99.90;;;;;;5032451;28;20282;-57
2024/04/06 07:44:58;;;;;;;1.17;0.77;;;23.50;99.90;;;;;;5037088;28;20279;-57
2024/04/06 07:47:28;;;;;;;1.07;0.80;;;23.70;99.90;;;;;;5025312;28;20729;-57
2024/04/06 07:49:55;;;;;;;0.67;0.50;;;24.50;99.90;;;;;;5028316;28;20310;-57
2024/04/06 07:52:22;;;;;;;0.40;0.40;;;24.60;98.00;;;;;;5030819;28;20282;-58
2024/04/06 07:54:50;;;;;;;2.37;0.73;;;24.70;99.90;;;;;;5031604;28;20206;-57
2024/04/06 07:57:17;;;;;;;0.67;0.67;;;24.70;98.50;;;;;;5031902;28;20206;-58
2024/04/06 07:59:46;;;;;;;2.20;1.13;;;24.60;99.10;;;;;;5030490;28;20194;-57
2024/04/06 08:02:12;;;;;;;0.67;0.57;;;25.20;98.40;;;;;;5031754;28;20260;-59
2024/04/06 08:04:39;;;;;;;1.80;0.70;;;25.50;99.90;;;;;;5031857;28;20204;-58
2024/04/06 08:07:06;;;;;;;0.40;0.40;;;26.00;98.30;;;;;;5031614;28;20341;-58
2024/04/06 08:09:34;;;;;;;1.40;0.40;;;26.10;97.80;;;;;;5031577;28;20222;-58
2024/04/06 08:12:00;;;;;;;2.10;1.13;;;26.60;96.80;;;;;;5031405;28;20697;-58
2024/04/06 08:14:27;;;;;;;0.70;0.70;;;26.50;97.90;;;;;;5026240;28;20274;-58
2024/04/06 08:16:54;;;;;;;0.40;0.40;;;26.40;98.40;;;;;;5032255;28;20585;-58
2024/04/06 08:19:21;;;;;;;2.20;0.80;;;26.10;97.00;;;;;;5031078;28;20280;-58
2024/04/06 08:21:47;;;;;;;0.60;0.43;;;25.70;97.70;;;;;;5032090;28;20202;-57
2024/04/06 08:24:17;;;;;;;1.30;0.40;;;25.70;98.00;;;;;;5028612;28;20194;-58
2024/04/06 08:26:43;;;;;;;0.40;0.40;;;26.00;98.10;;;;;;5032092;28;20213;-57
2024/04/06 08:29:10;;;;;;;1.70;0.60;;;26.10;99.80;;;;;;5027776;28;20678;-58
2024/04/06 08:31:37;;;;;;;1.37;0.63;;;25.70;99.00;;;;;;5031846;28;20206;-57
2024/04/06 08:34:05;;;;;;;0.53;0.33;;;26.00;99.80;;;;;;5036137;28;20222;-57
2024/04/06 08:36:31;;;;;;;1.07;0.50;;;26.00;99.90;;;;;;5029337;28;20199;-57
2024/04/06 08:38:58;;;;;;;0.70;0.60;;;26.50;99.90;;;;;;5020746;28;20698;-58
2024/04/06 08:41:25;;;;;;;0.43;0.43;;;27.00;99.90;;;;;;5023391;28;20242;-58
2024/04/06 08:43:56;;;;;;;0.53;0.40;;;27.00;99.80;;;;;;5025313;28;20518;-58
2024/04/06 08:46:22;;;;;;;1.33;0.50;;;27.00;97.90;;;;;;5029791;28;20203;-58
2024/04/06 08:48:50;;;;;;;0.87;0.40;;;27.00;99.50;;;;;;5029058;28;20261;-59
2024/04/06 08:51:20;;;;;;;0.60;0.60;;;27.30;99.90;;;;;;5029941;28;20211;-58
2024/04/06 08:53:47;;;;;;;0.50;0.50;;;;;;;;;;5028525;28;20203;-58
2024/04/06 08:56:15;;;;;;;0.50;0.50;;;;;;;;;;5022128;28;20221;-58
2024/04/06 08:58:42;;;;;;;0.43;0.43;;;;;;;;;;5026193;28;20274;-58
2024/04/06 09:01:10;;;;;;;0.40;0.40;;;28.20;93.00;;;;;;5027072;28;20269;-57
2024/04/06 09:03:37;;;;;;;1.17;0.50;;;28.10;94.40;;;;;;5024582;28;20205;-58
2024/04/06 09:06:04;;;;;;;0.47;0.47;;;28.00;93.90;;;;;;5029799;28;20206;-58
2024/04/06 09:08:38;;;;;;;0.68;0.38;;;28.30;94.80;;;;;;5028688;28;20223;-58
2024/04/06 09:11:11;;;;;;;1.60;0.47;;;28.50;93.90;;;;;;5021727;28;20210;-58
2024/04/06 09:13:39;;;;;;;1.05;0.60;;;28.40;92.30;;;;;;5029663;28;20202;-57
2024/04/06 09:16:07;;;;;;;3.20;0.45;;;28.00;93.40;;;;;;5027311;28;20206;-58
2024/04/06 09:18:34;;;;;;;0.50;0.50;;;28.10;96.10;;;;;;5028882;28;20206;-58
2024/04/06 09:21:00;;;;;;;0.43;0.30;;;28.00;93.90;;;;;;5030781;28;20245;-58
2024/04/06 09:23:27;;;;;;;0.60;0.60;;;28.00;92.20;;;;;;5043029;28;20227;-58
2024/04/06 09:26:01;;;;;;;1.05;0.95;;;28.00;94.20;;;;;;5051302;28;20627;-58
2024/04/06 09:28:29;;;;;;;1.17;0.40;;;28.00;93.60;;;;;;5037741;28;20228;-58
2024/04/06 09:30:57;;;;;;;0.40;0.40;;;27.20;91.50;;;;;;5036684;28;20206;-58
2024/04/06 09:33:25;;;;;;;0.77;0.40;;;27.70;95.90;;;;;;5030864;28;20692;-58
2024/04/06 09:35:52;;;;;;;1.15;0.43;;;27.90;94.50;;;;;;5031149;28;20206;-59
2024/04/06 09:38:20;;;;;;;1.65;0.38;;;27.90;95.80;;;;;;5024091;28;20846;-58
2024/04/06 09:40:47;;;;;;;0.50;0.50;;;27.90;95.30;;;;;;5037061;28;20202;-58
2024/04/06 09:43:16;;;;;;;1.85;0.40;;;28.30;93.10;;;;;;5011728;28;20285;-58
2024/04/06 09:45:43;;;;;;;3.10;0.40;;;28.70;93.20;;;;;;5011632;28;20207;-58
2024/04/06 09:48:11;;;;;;;0.50;0.50;;;29.10;93.90;;;;;;5022071;28;20312;-58
2024/04/06 09:50:38;;;;;;;0.50;0.50;;;29.50;92.30;;;;;;5034112;28;20643;-58
2024/04/06 09:53:06;;;;;;;0.40;0.40;;;29.60;91.50;;;;;;5030793;28;20268;-59
2024/04/06 09:55:35;;;;;;;0.65;0.65;;;29.70;92.60;;;;;;5030704;28;20207;-59
2024/04/06 09:58:03;;;;;;;1.15;0.90;;;29.80;90.60;;;;;;5027377;28;20222;-58
2024/04/06 10:00:32;;;;;;;0.35;0.35;;;30.10;91.50;;;;;;5032950;28;20733;-58
2024/04/06 10:03:02;;;;;;;0.80;0.70;;;30.40;93.40;;;;;;5043985;28;20475;-58
2024/04/06 10:05:38;;;;;;;1.50;0.30;;;30.80;91.10;;;;;;5010725;28;20243;-59
2024/04/06 10:08:07;;;;;;;0.43;0.43;;;30.60;88.90;;;;;;5012698;28;20213;-59
2024/04/06 10:10:33;;;;;;;2.80;0.50;;;;;;;;;;5033755;28;20285;-63
2024/04/06 10:13:00;;;;;;;0.73;0.73;;;;;;;;;;5043587;22;20227;-70
2024/04/06 10:15:28;;;;;;;2.85;0.95;;;30.30;88.40;;;;;;5031781;28;20268;-67
2024/04/06 10:18:02;;;;;;;0.60;0.57;;;30.40;88.00;;;;;;5022892;28;20195;-69
2024/04/06 10:20:31;;;;;;;2.65;0.68;;;;;;;;;;5030993;28;20662;-67
2024/04/06 10:23:00;;;;;;;1.17;0.40;;;;;;;;;;5022898;28;20217;-66
2024/04/06 10:25:32;;;;;;;1.85;0.50;;;;;;;;;;5023536;28;20286;-66
2024/04/06 10:28:02;;;;;;;0.85;0.73;;;;;;;;;;5019217;28;20195;-67
2024/04/06 10:30:29;;;;;;;1.42;0.50;;;;;;;;;;5026489;28;20214;-65
2024/04/06 10:33:00;;;;;;;0.60;0.60;;;;;;;;;;5025089;28;20218;-67
2024/04/06 10:35:27;;;;;;;0.82;0.40;;;;;;;;;;5013245;28;20254;-66
2024/04/06 10:37:54;;;;;;;2.95;1.02;;;;;;;;;;5014385;28;20195;-64
2024/04/06 10:40:23;;;;;;;1.13;0.60;;;;;;;;;;5030723;28;20203;-62
2024/04/06 10:42:51;;;;;;;2.95;1.13;;;;;;;;;;5015142;28;20634;-62
2024/04/06 10:45:17;;;;;;;0.63;0.40;;;;;;;;;;5015567;28;20208;-62
2024/04/06 10:47:45;;;;;;;0.98;0.40;;;;;;;;;;5028520;28;20254;-62
2024/04/06 10:50:12;;;;;;;0.50;0.50;;;;;;;;;;5015070;28;20222;-62
2024/04/06 10:52:42;;;;;;;0.60;0.60;;;;;;;;;;5016300;28;20219;-62
2024/04/06 10:55:15;;;;;;;2.38;1.50;;;;;;;;;;5023589;28;20207;-60
2024/04/06 10:57:44;;;;;;;0.90;0.70;;;;;;;;;;5015267;28;20209;-62
2024/04/06 11:00:11;;;;;;;0.45;0.43;;;;;;;;;;5021073;28;20662;-63
2024/04/06 11:02:38;;;;;;;2.85;0.60;;;;;;;;;;5020325;28;20250;-62
2024/04/06 11:05:05;;;;;;;5.10;1.13;;;;;;;;;;5020103;28;20202;-64
2024/04/06 11:07:34;;;;;;;13.68;12.27;;;;;;;;;;5026756;28;20197;-65
2024/04/06 11:10:00;;;;;;;4.55;4.20;;;;;;;;;;5020942;28;20281;-66
2024/04/06 11:12:28;;;;;;;6.28;5.25;;;;;;;;;;5034240;28;20222;-65
2024/04/06 11:14:54;;;;;;;11.43;9.88;;;;;;;;;;5023818;28;20272;-66
2024/04/06 11:17:21;;;;;;;3.17;1.70;;;;;;;;;;5019468;28;20195;-69
2024/04/06 11:19:52;;;;;;;1.33;1.00;;;;;;;;;;5017138;28;20560;-71
2024/04/06 11:22:20;;;;;;;2.40;1.23;;;;;;;;;;5014216;28;20637;-70
2024/04/06 11:24:48;;;;;;;9.25;6.43;;;;;;;;;;5021518;28;20200;-60
2024/04/06 11:27:20;;;;;;;4.80;4.47;;;;;;;;;;5022735;28;20230;-67
2024/04/06 11:29:48;;;;;;;4.47;2.75;;;;;;;;;;5018478;28;20300;-64
2024/04/06 11:32:19;;;;;;;1.90;1.15;;;;;;;;;;5019923;28;20219;-64
2024/04/06 11:34:45;;;;;;;1.48;0.90;;;;;;;;;;5020987;28;20256;-66
2024/04/06 11:37:13;;;;;;;1.60;1.50;;;27.10;92.90;;;;;;5020326;28;20203;-68
2024/04/06 11:39:40;;;;;;;0.80;0.80;;;26.80;93.10;;;;;;5014607;28;20202;-67
2024/04/06 11:42:08;;;;;;;2.92;1.10;;;26.40;93.20;;;;;;5017147;28;20215;-67
2024/04/06 11:44:34;;;;;;;5.63;1.55;;;26.40;93.70;;;;;;5019848;28;20202;-65
2024/04/06 11:47:02;;;;;;;2.13;0.90;;;26.10;95.20;;;;;;5016399;28;20729;-66
2024/04/06 11:49:28;;;;;;;4.73;1.40;;;25.40;95.40;;;;;;5011809;28;20714;-65
2024/04/06 11:51:55;;;;;;;1.70;0.80;;;25.20;96.90;;;;;;5015322;28;20215;-65
2024/04/06 11:54:21;;;;;;;1.03;0.63;;;24.90;97.00;;;;;;5017271;28;20199;-66
2024/04/06 11:56:48;;;;;;;3.67;0.77;;;24.80;97.70;;;;;;5017288;28;20206;-66
2024/04/06 11:59:15;;;;;;;1.07;1.07;;;24.70;98.20;;;;;;5020698;28;20205;-65
2024/04/06 12:01:43;;;;;;;0.73;0.60;;;24.50;98.50;;;;;;5017122;28;20226;-66
2024/04/06 12:04:09;;;;;;;1.47;1.40;;;24.50;99.30;;;;;;5024320;28;20198;-69
2024/04/06 12:06:37;;;;;;;3.57;1.10;;;24.10;99.90;;;;;;5022134;28;20237;-68
2024/04/06 12:09:05;;;;;;;2.60;0.83;;;23.80;99.90;;;;;;5018179;28;20226;-67
2024/04/06 12:11:32;;;;;;;6.30;1.23;;;23.50;99.90;;;;;;5022214;28;20273;-66
2024/04/06 12:13:58;;;;;;;2.27;1.33;;;23.10;99.90;;;;;;5024675;28;20199;-67
2024/04/06 12:16:27;;;;;;;3.03;1.00;;;23.00;99.90;;;;;;5024939;28;20241;-67
2024/04/06 12:18:54;;;;;;;2.70;0.93;;;23.00;99.90;;;;;;5025337;28;20201;-68
2024/04/06 12:21:22;;;;;;;3.17;0.87;;;23.30;99.90;;;;;;5014388;28;20222;-68
2024/04/06 12:23:48;;;;;;;2.30;1.27;;;23.40;99.90;;;;;;5020712;28;20218;-67
2024/04/06 12:26:15;;;;;;;2.70;0.60;;;23.30;99.90;;;;;;5024418;28;20199;-68
2024/04/06 12:28:41;;;;;;;2.40;0.60;;;23.20;99.90;;;;;;5020504;28;20562;-67
2024/04/06 12:31:08;;;;;;;0.80;0.80;;;22.80;99.90;;;;;;5021882;28;20314;-67
2024/04/06 12:33:36;;;;;;;2.20;1.20;;;22.70;99.90;;;;;;5020556;28;20246;-71
2024/04/06 12:36:05;;;;;;;3.27;1.20;;;22.60;99.90;;;;;;5020793;28;20203;-71
2024/04/06 12:38:31;;;;;;;1.50;0.83;;;22.70;99.90;;;;;;5018003;28;20353;-72
2024/04/06 12:40:59;;;;;;;0.87;0.83;;;23.10;99.90;;;;;;5020408;28;20790;-73
2024/04/06 12:43:25;;;;;;;0.73;0.73;;;23.50;99.90;;;;;;5026040;28;20675;-70
2024/04/06 12:45:52;;;;;;;1.07;1.07;;;23.80;99.90;;;;;;5020464;28;20195;-71
2024/04/06 12:48:18;;;;;;;1.70;1.37;;;24.10;99.90;;;;;;4998600;28;20272;-70
2024/04/06 12:50:46;;;;;;;1.17;1.17;;;24.40;99.90;;;;;;5014323;28;20215;-69
2024/04/06 12:53:12;;;;;;;1.47;1.20;;;24.60;99.90;;;;;;5027122;28;20284;-70
2024/04/06 12:55:39;;;;;;;1.07;0.60;;;24.70;99.90;;;;;;5022340;28;20203;-72
2024/04/06 12:58:06;;;;;;;5.00;1.37;;;24.60;99.90;;;;;;5015078;28;20203;-68
2024/04/06 13:00:33;;;;;;;0.60;0.60;;;24.70;99.20;;;;;;5019337;28;20290;-70
2024/04/06 13:03:00;;;;;;;0.60;0.60;;;24.60;99.00;;;;;;5009600;28;20215;-72
2024/04/06 13:05:28;;;;;;;1.53;0.77;;;24.30;99.70;;;;;;5015834;28;20203;-76
2024/04/06 13:07:56;;;;;;;2.43;0.80;;;24.50;99.90;;;;;;5017799;28;20357;-69
2024/04/06 13:10:23;;;;;;;1.00;0.90;;;24.60;99.30;;;;;;5014716;28;20304;-70
2024/04/06 13:12:49;;;;;;;1.07;0.60;;;24.70;99.90;;;;;;5011623;28;20753;-71
2024/04/06 13:15:16;;;;;;;0.70;0.70;;;24.60;99.20;;;;;;5013934;28;20194;-69
2024/04/06 13:17:43;;;;;;;1.10;1.00;;;24.60;99.90;;;;;;5013619;28;20206;-71
2024/04/06 13:20:20;;;;;;;0.77;0.77;;;24.60;99.90;;;;;;5018527;28;20238;-68